Terminal Aerodrome Forecast
Issued by NWS Quad Cities IA IL

Home | Current Version | Previous Version | Text Only | Print | Product List | Glossary On
Versions: 1 2 3 4 5 6 7 8 9 10 11 12 13 14 15 16
000
FTUS43 KDVN 251700 RRA
TAFDBQ
TAF
KDBQ 251730Z 2518/2618 09010KT 1SM -SN BR OVC010
      TEMPO 2518/2521 1/2SM SN BKN004 OVC010
     FM252100 06010KT 1SM -SN OVC004
     FM260100 02011KT 3SM -SN OVC008
     FM260600 01012KT P6SM BKN015
     FM261200 36013KT P6SM OVC100=

USA.gov is the U.S. government's official web portal to all federal, state and local government web resources and services.